Airfield :
LOGIN :

Register | Disclaimer

   EN    FR    IT 

 










Legend :    VFR   Marginal VFR   IFR   Intensive IFR   Very Intensive IFR
Visi :
Ceiling :
>= 8 km
>= 3000ft
5 to 8 km
1000 to 3000 ft
1500m to 5 km
500 to 1000 ft
800 to 1500m
200 to 500 ft
< 800m
< 200 ft
Symbols :   Thunderstorms  Fog  Heavy snow  Heavy precipitations  Wind > 20 kt
SIGMETs :     Misc.  Thunderstorms  Icing  Turbulence  Mountain Waves  Volcanic Ashes






- Airport Elevation : 353 ft
- IATA code : ZAG


LDZA - Zagreb Pleso

CURRENT METAR :
  • 161030Z VRB05KT CAVOK 33/15 Q1012 NOSIG

EXPIRED METARs :
  • 161000Z VRB03KT CAVOK 33/18 Q1012 NOSIG
  • 160930Z VRB04KT CAVOK 32/18 Q1012 TEMPO 22006KT
  • 160900Z VRB03KT CAVOK 31/19 Q1012 TEMPO 22006KT
  • 160830Z VRB03KT CAVOK 30/19 Q1012 NOSIG
  • 160800Z VRB03KT CAVOK 29/19 Q1012 NOSIG
  • 160730Z VRB02KT CAVOK 28/19 Q1012 NOSIG
  • 160700Z 27004KT 190V350 CAVOK 26/18 Q1012 NOSIG
  • 160630Z 27004KT 210V320 CAVOK 25/19 Q1012 NOSIG
  • 160600Z 27003KT 200V340 CAVOK 24/19 Q1012 NOSIG

TAF TAF LDZA
Valid from the 16 at 06:00 until the 17 at 06:00 UTC


160525Z 1606/1706 VRB02KT CAVOK TX36/1614Z TN23/1703Z
PROB30
TEMPO 1606/1612 22007KT
PROB30
TEMPO 1620/1623 TS FEW060CB
PROB40
TEMPO 1701/1706 04008KT
ATIS : +385 1 6-259-214



MET'MAP, your aeronautical weather chart ! - Copyright ORBIFLY December 2007 - Disclaimer

ORBIFLY MET'MAP TEAM :

Programming & Development : Alexandra Zaïnal
Original concept : Baudouin d'Aumeries
Technical & hardware support : Manuel Goepfert
Assistance : Marc-Olivier Méhu




SOURCES & CREDITS :

   NOAA